sensor_id;sensor_type;location;lat;lon;timestamp;P1;durP1;ratioP1;P2;durP2;ratioP2
4313;SDS011;2170;48.794;9.182;2022-12-18T00:02:02;64.38;;;37.90;;
4313;SDS011;2170;48.794;9.182;2022-12-18T00:04:31;65.68;;;38.75;;
4313;SDS011;2170;48.794;9.182;2022-12-18T00:06:59;58.40;;;37.25;;
4313;SDS011;2170;48.794;9.182;2022-12-18T00:09:26;59.83;;;36.88;;
4313;SDS011;2170;48.794;9.182;2022-12-18T00:11:53;62.38;;;38.72;;
4313;SDS011;2170;48.794;9.182;2022-12-18T00:14:21;56.35;;;35.45;;
4313;SDS011;2170;48.794;9.182;2022-12-18T00:16:48;59.10;;;35.88;;
4313;SDS011;2170;48.794;9.182;2022-12-18T00:19:15;59.45;;;36.80;;
4313;SDS011;2170;48.794;9.182;2022-12-18T00:21:43;64.45;;;36.85;;
4313;SDS011;2170;48.794;9.182;2022-12-18T00:24:10;60.97;;;36.17;;
4313;SDS011;2170;48.794;9.182;2022-12-18T00:26:38;64.80;;;35.83;;
4313;SDS011;2170;48.794;9.182;2022-12-18T00:29:06;61.35;;;37.80;;
4313;SDS011;2170;48.794;9.182;2022-12-18T00:31:34;54.78;;;35.78;;
4313;SDS011;2170;48.794;9.182;2022-12-18T00:34:02;59.45;;;35.75;;
4313;SDS011;2170;48.794;9.182;2022-12-18T00:36:30;56.60;;;36.67;;
4313;SDS011;2170;48.794;9.182;2022-12-18T00:38:57;63.63;;;37.50;;
4313;SDS011;2170;48.794;9.182;2022-12-18T00:41:25;60.85;;;36.67;;
4313;SDS011;2170;48.794;9.182;2022-12-18T00:44:11;58.95;;;36.63;;
4313;SDS011;2170;48.794;9.182;2022-12-18T00:46:40;67.47;;;38.60;;
4313;SDS011;2170;48.794;9.182;2022-12-18T00:49:07;65.43;;;37.38;;
4313;SDS011;2170;48.794;9.182;2022-12-18T00:51:34;61.03;;;36.92;;
4313;SDS011;2170;48.794;9.182;2022-12-18T00:54:01;64.05;;;38.25;;
4313;SDS011;2170;48.794;9.182;2022-12-18T00:56:28;65.57;;;39.65;;
4313;SDS011;2170;48.794;9.182;2022-12-18T00:58:55;66.50;;;38.83;;
4313;SDS011;2170;48.794;9.182;2022-12-18T01:01:22;63.35;;;37.15;;
4313;SDS011;2170;48.794;9.182;2022-12-18T01:03:51;68.05;;;38.75;;
4313;SDS011;2170;48.794;9.182;2022-12-18T01:06:18;62.03;;;35.40;;
4313;SDS011;2170;48.794;9.182;2022-12-18T01:08:45;61.65;;;37.20;;
4313;SDS011;2170;48.794;9.182;2022-12-18T01:11:13;65.55;;;37.45;;
4313;SDS011;2170;48.794;9.182;2022-12-18T01:13:41;62.58;;;37.92;;
4313;SDS011;2170;48.794;9.182;2022-12-18T01:16:08;61.25;;;37.60;;
4313;SDS011;2170;48.794;9.182;2022-12-18T01:18:37;74.95;;;38.45;;
4313;SDS011;2170;48.794;9.182;2022-12-18T01:21:07;65.38;;;37.70;;
4313;SDS011;2170;48.794;9.182;2022-12-18T01:23:34;54.85;;;35.88;;
4313;SDS011;2170;48.794;9.182;2022-12-18T01:26:05;66.25;;;37.10;;
4313;SDS011;2170;48.794;9.182;2022-12-18T01:28:32;73.97;;;39.10;;
4313;SDS011;2170;48.794;9.182;2022-12-18T01:31:08;65.03;;;36.60;;
4313;SDS011;2170;48.794;9.182;2022-12-18T01:33:36;64.57;;;38.70;;
4313;SDS011;2170;48.794;9.182;2022-12-18T01:36:03;61.13;;;36.35;;
4313;SDS011;2170;48.794;9.182;2022-12-18T01:38:31;62.00;;;37.33;;
4313;SDS011;2170;48.794;9.182;2022-12-18T01:40:59;59.30;;;36.20;;
4313;SDS011;2170;48.794;9.182;2022-12-18T01:43:40;66.13;;;36.97;;
4313;SDS011;2170;48.794;9.182;2022-12-18T01:46:07;57.78;;;37.30;;
4313;SDS011;2170;48.794;9.182;2022-12-18T01:48:34;59.65;;;37.88;;
4313;SDS011;2170;48.794;9.182;2022-12-18T01:51:01;63.10;;;38.08;;
4313;SDS011;2170;48.794;9.182;2022-12-18T01:53:28;66.45;;;36.53;;
4313;SDS011;2170;48.794;9.182;2022-12-18T01:55:57;59.83;;;37.35;;
4313;SDS011;2170;48.794;9.182;2022-12-18T01:58:27;59.53;;;36.17;;
4313;SDS011;2170;48.794;9.182;2022-12-18T02:00:54;60.13;;;36.15;;
4313;SDS011;2170;48.794;9.182;2022-12-18T02:03:21;63.63;;;37.10;;
4313;SDS011;2170;48.794;9.182;2022-12-18T02:05:49;63.28;;;37.25;;
4313;SDS011;2170;48.794;9.182;2022-12-18T02:08:20;63.15;;;35.40;;
4313;SDS011;2170;48.794;9.182;2022-12-18T02:10:48;55.70;;;34.38;;
4313;SDS011;2170;48.794;9.182;2022-12-18T02:13:20;59.28;;;35.53;;
4313;SDS011;2170;48.794;9.182;2022-12-18T02:15:51;57.35;;;34.08;;
4313;SDS011;2170;48.794;9.182;2022-12-18T02:18:23;60.20;;;35.78;;
4313;SDS011;2170;48.794;9.182;2022-12-18T02:20:53;59.58;;;33.90;;
4313;SDS011;2170;48.794;9.182;2022-12-18T02:23:24;59.42;;;35.17;;
4313;SDS011;2170;48.794;9.182;2022-12-18T02:26:07;60.92;;;35.33;;
4313;SDS011;2170;48.794;9.182;2022-12-18T02:28:42;55.92;;;33.47;;
4313;SDS011;2170;48.794;9.182;2022-12-18T02:31:11;56.03;;;33.10;;
4313;SDS011;2170;48.794;9.182;2022-12-18T02:33:39;54.65;;;33.60;;
4313;SDS011;2170;48.794;9.182;2022-12-18T02:36:07;50.42;;;32.95;;
4313;SDS011;2170;48.794;9.182;2022-12-18T02:38:35;60.05;;;33.50;;
4313;SDS011;2170;48.794;9.182;2022-12-18T02:41:02;53.28;;;32.63;;
4313;SDS011;2170;48.794;9.182;2022-12-18T02:43:31;54.83;;;33.13;;
4313;SDS011;2170;48.794;9.182;2022-12-18T02:45:59;52.90;;;33.58;;
4313;SDS011;2170;48.794;9.182;2022-12-18T02:48:28;54.85;;;33.10;;
4313;SDS011;2170;48.794;9.182;2022-12-18T02:50:58;53.22;;;33.72;;
4313;SDS011;2170;48.794;9.182;2022-12-18T02:53:27;53.38;;;33.80;;
4313;SDS011;2170;48.794;9.182;2022-12-18T02:55:59;56.28;;;32.40;;
4313;SDS011;2170;48.794;9.182;2022-12-18T02:58:32;58.15;;;33.22;;
4313;SDS011;2170;48.794;9.182;2022-12-18T03:01:02;54.05;;;34.67;;
4313;SDS011;2170;48.794;9.182;2022-12-18T03:03:33;51.00;;;30.05;;
4313;SDS011;2170;48.794;9.182;2022-12-18T03:06:03;54.63;;;32.60;;
4313;SDS011;2170;48.794;9.182;2022-12-18T03:08:33;47.42;;;30.25;;
4313;SDS011;2170;48.794;9.182;2022-12-18T03:11:03;54.47;;;32.28;;
4313;SDS011;2170;48.794;9.182;2022-12-18T03:13:33;54.85;;;33.63;;
4313;SDS011;2170;48.794;9.182;2022-12-18T03:16:01;50.63;;;32.60;;
4313;SDS011;2170;48.794;9.182;2022-12-18T03:18:30;52.35;;;30.05;;
4313;SDS011;2170;48.794;9.182;2022-12-18T03:20:58;47.58;;;30.38;;
4313;SDS011;2170;48.794;9.182;2022-12-18T03:23:27;55.78;;;31.38;;
4313;SDS011;2170;48.794;9.182;2022-12-18T03:25:56;53.50;;;32.00;;
4313;SDS011;2170;48.794;9.182;2022-12-18T03:28:24;48.92;;;30.88;;
4313;SDS011;2170;48.794;9.182;2022-12-18T03:30:54;53.72;;;32.88;;
4313;SDS011;2170;48.794;9.182;2022-12-18T03:33:23;54.90;;;31.25;;
4313;SDS011;2170;48.794;9.182;2022-12-18T03:35:52;57.97;;;32.38;;
4313;SDS011;2170;48.794;9.182;2022-12-18T03:38:19;54.08;;;32.47;;
4313;SDS011;2170;48.794;9.182;2022-12-18T03:40:50;51.65;;;32.78;;
4313;SDS011;2170;48.794;9.182;2022-12-18T03:43:20;51.75;;;31.50;;
4313;SDS011;2170;48.794;9.182;2022-12-18T03:45:48;56.35;;;32.55;;
4313;SDS011;2170;48.794;9.182;2022-12-18T03:48:19;56.00;;;32.28;;
4313;SDS011;2170;48.794;9.182;2022-12-18T03:50:49;52.15;;;31.20;;
4313;SDS011;2170;48.794;9.182;2022-12-18T03:53:22;57.45;;;32.03;;
4313;SDS011;2170;48.794;9.182;2022-12-18T03:55:51;45.90;;;29.45;;
4313;SDS011;2170;48.794;9.182;2022-12-18T03:58:19;44.80;;;29.35;;
4313;SDS011;2170;48.794;9.182;2022-12-18T04:00:47;52.28;;;30.40;;
4313;SDS011;2170;48.794;9.182;2022-12-18T04:03:16;58.92;;;31.98;;
4313;SDS011;2170;48.794;9.182;2022-12-18T04:05:46;46.75;;;30.13;;
4313;SDS011;2170;48.794;9.182;2022-12-18T04:08:15;47.55;;;29.25;;
4313;SDS011;2170;48.794;9.182;2022-12-18T04:10:42;48.85;;;31.02;;
4313;SDS011;2170;48.794;9.182;2022-12-18T04:13:09;45.17;;;30.45;;
4313;SDS011;2170;48.794;9.182;2022-12-18T04:15:36;49.53;;;31.70;;
4313;SDS011;2170;48.794;9.182;2022-12-18T04:18:03;47.40;;;29.13;;
4313;SDS011;2170;48.794;9.182;2022-12-18T04:20:30;46.40;;;28.63;;
4313;SDS011;2170;48.794;9.182;2022-12-18T04:22:59;46.88;;;29.10;;
4313;SDS011;2170;48.794;9.182;2022-12-18T04:25:26;48.40;;;28.90;;
4313;SDS011;2170;48.794;9.182;2022-12-18T04:27:53;45.75;;;29.10;;
4313;SDS011;2170;48.794;9.182;2022-12-18T04:30:20;46.30;;;29.27;;
4313;SDS011;2170;48.794;9.182;2022-12-18T04:32:47;49.35;;;28.08;;
4313;SDS011;2170;48.794;9.182;2022-12-18T04:35:14;45.22;;;28.52;;
4313;SDS011;2170;48.794;9.182;2022-12-18T04:37:41;48.17;;;28.83;;
4313;SDS011;2170;48.794;9.182;2022-12-18T04:40:10;46.58;;;28.55;;
4313;SDS011;2170;48.794;9.182;2022-12-18T04:42:38;45.63;;;28.08;;
4313;SDS011;2170;48.794;9.182;2022-12-18T04:45:06;43.42;;;28.05;;
4313;SDS011;2170;48.794;9.182;2022-12-18T04:47:33;44.85;;;27.85;;
4313;SDS011;2170;48.794;9.182;2022-12-18T04:50:00;45.00;;;27.90;;
4313;SDS011;2170;48.794;9.182;2022-12-18T04:52:27;42.85;;;27.67;;
4313;SDS011;2170;48.794;9.182;2022-12-18T04:54:54;42.67;;;27.30;;
4313;SDS011;2170;48.794;9.182;2022-12-18T04:57:23;44.50;;;28.30;;
4313;SDS011;2170;48.794;9.182;2022-12-18T04:59:51;36.35;;;25.20;;
4313;SDS011;2170;48.794;9.182;2022-12-18T05:02:18;38.70;;;25.70;;
4313;SDS011;2170;48.794;9.182;2022-12-18T05:04:45;38.10;;;27.33;;
4313;SDS011;2170;48.794;9.182;2022-12-18T05:07:12;39.05;;;25.63;;
4313;SDS011;2170;48.794;9.182;2022-12-18T05:09:39;37.33;;;24.88;;
4313;SDS011;2170;48.794;9.182;2022-12-18T05:12:06;41.55;;;25.40;;
4313;SDS011;2170;48.794;9.182;2022-12-18T05:14:34;36.90;;;25.05;;
4313;SDS011;2170;48.794;9.182;2022-12-18T05:17:01;40.17;;;26.73;;
4313;SDS011;2170;48.794;9.182;2022-12-18T05:19:28;44.10;;;27.20;;
4313;SDS011;2170;48.794;9.182;2022-12-18T05:21:55;40.83;;;25.42;;
4313;SDS011;2170;48.794;9.182;2022-12-18T05:24:23;39.47;;;25.77;;
4313;SDS011;2170;48.794;9.182;2022-12-18T05:26:52;43.65;;;27.50;;
4313;SDS011;2170;48.794;9.182;2022-12-18T05:29:19;49.17;;;27.85;;
4313;SDS011;2170;48.794;9.182;2022-12-18T05:31:47;45.20;;;26.55;;
4313;SDS011;2170;48.794;9.182;2022-12-18T05:34:15;39.67;;;26.30;;
4313;SDS011;2170;48.794;9.182;2022-12-18T05:36:42;41.53;;;26.95;;
4313;SDS011;2170;48.794;9.182;2022-12-18T05:39:09;40.25;;;26.42;;
4313;SDS011;2170;48.794;9.182;2022-12-18T05:41:36;39.25;;;25.80;;
4313;SDS011;2170;48.794;9.182;2022-12-18T05:44:03;41.83;;;29.02;;
4313;SDS011;2170;48.794;9.182;2022-12-18T05:46:30;44.13;;;26.08;;
4313;SDS011;2170;48.794;9.182;2022-12-18T05:49:00;43.85;;;27.75;;
4313;SDS011;2170;48.794;9.182;2022-12-18T05:51:27;45.13;;;26.98;;
4313;SDS011;2170;48.794;9.182;2022-12-18T05:53:54;38.40;;;26.05;;
4313;SDS011;2170;48.794;9.182;2022-12-18T05:56:21;43.08;;;28.60;;
4313;SDS011;2170;48.794;9.182;2022-12-18T05:58:51;42.53;;;27.80;;
4313;SDS011;2170;48.794;9.182;2022-12-18T06:01:18;43.92;;;27.27;;
4313;SDS011;2170;48.794;9.182;2022-12-18T06:03:46;40.15;;;25.27;;
4313;SDS011;2170;48.794;9.182;2022-12-18T06:06:15;39.60;;;26.75;;
4313;SDS011;2170;48.794;9.182;2022-12-18T06:08:43;36.67;;;25.65;;
4313;SDS011;2170;48.794;9.182;2022-12-18T06:11:10;45.70;;;27.58;;
4313;SDS011;2170;48.794;9.182;2022-12-18T06:13:38;47.72;;;27.05;;
4313;SDS011;2170;48.794;9.182;2022-12-18T06:16:05;43.38;;;27.65;;
4313;SDS011;2170;48.794;9.182;2022-12-18T06:18:33;42.47;;;27.80;;
4313;SDS011;2170;48.794;9.182;2022-12-18T06:21:00;41.33;;;27.88;;
4313;SDS011;2170;48.794;9.182;2022-12-18T06:23:29;43.58;;;27.40;;
4313;SDS011;2170;48.794;9.182;2022-12-18T06:25:56;41.70;;;26.75;;
4313;SDS011;2170;48.794;9.182;2022-12-18T06:28:23;44.10;;;26.77;;
4313;SDS011;2170;48.794;9.182;2022-12-18T06:30:50;41.45;;;27.60;;
4313;SDS011;2170;48.794;9.182;2022-12-18T06:33:18;40.50;;;26.60;;
4313;SDS011;2170;48.794;9.182;2022-12-18T06:35:45;43.22;;;26.83;;
4313;SDS011;2170;48.794;9.182;2022-12-18T06:38:12;41.85;;;25.85;;
4313;SDS011;2170;48.794;9.182;2022-12-18T06:40:41;42.72;;;26.00;;
4313;SDS011;2170;48.794;9.182;2022-12-18T06:43:08;43.08;;;27.33;;
4313;SDS011;2170;48.794;9.182;2022-12-18T06:45:35;42.80;;;26.90;;
4313;SDS011;2170;48.794;9.182;2022-12-18T06:48:02;39.38;;;25.90;;
4313;SDS011;2170;48.794;9.182;2022-12-18T06:50:29;37.28;;;26.17;;
4313;SDS011;2170;48.794;9.182;2022-12-18T06:52:56;41.00;;;26.85;;
4313;SDS011;2170;48.794;9.182;2022-12-18T06:55:23;39.88;;;25.13;;
4313;SDS011;2170;48.794;9.182;2022-12-18T06:57:52;41.17;;;25.70;;
4313;SDS011;2170;48.794;9.182;2022-12-18T07:00:19;34.53;;;25.45;;
4313;SDS011;2170;48.794;9.182;2022-12-18T07:02:46;37.55;;;25.60;;
4313;SDS011;2170;48.794;9.182;2022-12-18T07:05:13;43.65;;;27.00;;
4313;SDS011;2170;48.794;9.182;2022-12-18T07:07:40;41.25;;;25.63;;
4313;SDS011;2170;48.794;9.182;2022-12-18T07:10:07;41.15;;;24.58;;
4313;SDS011;2170;48.794;9.182;2022-12-18T07:12:34;37.53;;;25.63;;
4313;SDS011;2170;48.794;9.182;2022-12-18T07:15:03;39.25;;;24.73;;
4313;SDS011;2170;48.794;9.182;2022-12-18T07:17:31;40.42;;;24.73;;
4313;SDS011;2170;48.794;9.182;2022-12-18T07:19:58;36.22;;;26.75;;
4313;SDS011;2170;48.794;9.182;2022-12-18T07:22:25;37.97;;;24.77;;
4313;SDS011;2170;48.794;9.182;2022-12-18T07:24:52;39.53;;;26.15;;
4313;SDS011;2170;48.794;9.182;2022-12-18T07:27:20;39.13;;;25.00;;
4313;SDS011;2170;48.794;9.182;2022-12-18T07:29:47;38.55;;;23.73;;
4313;SDS011;2170;48.794;9.182;2022-12-18T07:32:15;46.90;;;28.27;;
4313;SDS011;2170;48.794;9.182;2022-12-18T07:34:42;45.33;;;28.83;;
4313;SDS011;2170;48.794;9.182;2022-12-18T07:37:09;45.28;;;27.40;;
4313;SDS011;2170;48.794;9.182;2022-12-18T07:39:36;46.92;;;29.63;;
4313;SDS011;2170;48.794;9.182;2022-12-18T07:42:04;50.90;;;31.02;;
4313;SDS011;2170;48.794;9.182;2022-12-18T07:44:48;47.92;;;29.50;;
4313;SDS011;2170;48.794;9.182;2022-12-18T07:47:16;46.95;;;30.55;;
4313;SDS011;2170;48.794;9.182;2022-12-18T07:49:43;40.53;;;26.30;;
4313;SDS011;2170;48.794;9.182;2022-12-18T07:52:10;107.25;;;62.75;;
4313;SDS011;2170;48.794;9.182;2022-12-18T07:54:38;78.35;;;43.63;;
4313;SDS011;2170;48.794;9.182;2022-12-18T07:57:05;41.85;;;27.77;;
4313;SDS011;2170;48.794;9.182;2022-12-18T07:59:32;38.78;;;26.13;;
4313;SDS011;2170;48.794;9.182;2022-12-18T08:02:00;42.67;;;26.50;;
4313;SDS011;2170;48.794;9.182;2022-12-18T08:04:28;37.38;;;26.30;;
4313;SDS011;2170;48.794;9.182;2022-12-18T08:06:55;40.38;;;27.30;;
4313;SDS011;2170;48.794;9.182;2022-12-18T08:09:22;40.47;;;27.38;;
4313;SDS011;2170;48.794;9.182;2022-12-18T08:11:49;46.05;;;28.30;;
4313;SDS011;2170;48.794;9.182;2022-12-18T08:14:16;43.05;;;26.60;;
4313;SDS011;2170;48.794;9.182;2022-12-18T08:16:44;43.53;;;26.73;;
4313;SDS011;2170;48.794;9.182;2022-12-18T08:19:11;42.70;;;27.70;;
4313;SDS011;2170;48.794;9.182;2022-12-18T08:21:39;41.92;;;27.10;;
4313;SDS011;2170;48.794;9.182;2022-12-18T08:24:08;39.58;;;27.73;;
4313;SDS011;2170;48.794;9.182;2022-12-18T08:26:36;42.58;;;27.27;;
4313;SDS011;2170;48.794;9.182;2022-12-18T08:29:03;39.50;;;27.98;;
4313;SDS011;2170;48.794;9.182;2022-12-18T08:31:30;42.17;;;27.80;;
4313;SDS011;2170;48.794;9.182;2022-12-18T08:33:57;41.35;;;26.65;;
4313;SDS011;2170;48.794;9.182;2022-12-18T08:36:25;39.55;;;26.30;;
4313;SDS011;2170;48.794;9.182;2022-12-18T08:38:53;45.63;;;28.42;;
4313;SDS011;2170;48.794;9.182;2022-12-18T08:41:20;43.90;;;28.50;;
4313;SDS011;2170;48.794;9.182;2022-12-18T08:43:47;40.28;;;28.15;;
4313;SDS011;2170;48.794;9.182;2022-12-18T08:46:33;42.17;;;29.20;;
4313;SDS011;2170;48.794;9.182;2022-12-18T08:49:00;48.42;;;28.50;;
4313;SDS011;2170;48.794;9.182;2022-12-18T08:51:31;45.30;;;29.33;;
4313;SDS011;2170;48.794;9.182;2022-12-18T08:53:59;42.08;;;28.45;;
4313;SDS011;2170;48.794;9.182;2022-12-18T08:56:26;44.03;;;28.48;;
4313;SDS011;2170;48.794;9.182;2022-12-18T08:58:55;41.40;;;28.75;;
4313;SDS011;2170;48.794;9.182;2022-12-18T09:01:22;48.40;;;30.10;;
4313;SDS011;2170;48.794;9.182;2022-12-18T09:03:49;45.22;;;28.58;;
4313;SDS011;2170;48.794;9.182;2022-12-18T09:06:17;40.85;;;28.77;;
4313;SDS011;2170;48.794;9.182;2022-12-18T09:08:44;47.08;;;28.60;;
4313;SDS011;2170;48.794;9.182;2022-12-18T09:11:14;41.92;;;27.35;;
4313;SDS011;2170;48.794;9.182;2022-12-18T09:13:41;44.08;;;28.42;;
4313;SDS011;2170;48.794;9.182;2022-12-18T09:16:08;43.25;;;27.48;;
4313;SDS011;2170;48.794;9.182;2022-12-18T09:18:36;40.08;;;28.23;;
4313;SDS011;2170;48.794;9.182;2022-12-18T09:21:09;39.57;;;26.67;;
4313;SDS011;2170;48.794;9.182;2022-12-18T09:23:36;42.22;;;30.75;;
4313;SDS011;2170;48.794;9.182;2022-12-18T09:26:03;44.72;;;30.58;;
4313;SDS011;2170;48.794;9.182;2022-12-18T09:28:32;40.83;;;27.00;;
4313;SDS011;2170;48.794;9.182;2022-12-18T09:31:03;40.90;;;27.53;;
4313;SDS011;2170;48.794;9.182;2022-12-18T09:33:30;44.70;;;28.13;;
4313;SDS011;2170;48.794;9.182;2022-12-18T09:35:57;48.07;;;29.27;;
4313;SDS011;2170;48.794;9.182;2022-12-18T09:38:24;45.17;;;30.58;;
4313;SDS011;2170;48.794;9.182;2022-12-18T09:40:52;41.07;;;26.87;;
4313;SDS011;2170;48.794;9.182;2022-12-18T09:43:22;48.80;;;29.97;;
4313;SDS011;2170;48.794;9.182;2022-12-18T09:45:53;48.30;;;29.67;;
4313;SDS011;2170;48.794;9.182;2022-12-18T09:48:23;36.63;;;26.27;;
4313;SDS011;2170;48.794;9.182;2022-12-18T09:50:52;42.50;;;28.60;;
4313;SDS011;2170;48.794;9.182;2022-12-18T09:53:22;38.83;;;26.20;;
4313;SDS011;2170;48.794;9.182;2022-12-18T09:55:51;42.23;;;28.07;;
4313;SDS011;2170;48.794;9.182;2022-12-18T09:58:20;42.17;;;26.10;;
4313;SDS011;2170;48.794;9.182;2022-12-18T10:00:52;42.17;;;28.03;;
4313;SDS011;2170;48.794;9.182;2022-12-18T10:03:19;42.90;;;27.80;;
4313;SDS011;2170;48.794;9.182;2022-12-18T10:05:49;46.60;;;32.40;;
4313;SDS011;2170;48.794;9.182;2022-12-18T10:08:20;42.60;;;28.77;;
4313;SDS011;2170;48.794;9.182;2022-12-18T10:10:49;41.30;;;29.07;;
4313;SDS011;2170;48.794;9.182;2022-12-18T10:13:20;39.40;;;27.30;;
4313;SDS011;2170;48.794;9.182;2022-12-18T10:15:54;38.60;;;27.90;;
4313;SDS011;2170;48.794;9.182;2022-12-18T10:18:28;41.03;;;28.80;;
4313;SDS011;2170;48.794;9.182;2022-12-18T10:20:58;37.43;;;25.40;;
4313;SDS011;2170;48.794;9.182;2022-12-18T10:23:29;40.77;;;27.80;;
4313;SDS011;2170;48.794;9.182;2022-12-18T10:26:00;40.07;;;27.93;;
4313;SDS011;2170;48.794;9.182;2022-12-18T10:28:29;37.67;;;27.23;;
4313;SDS011;2170;48.794;9.182;2022-12-18T10:30:57;41.83;;;27.13;;
4313;SDS011;2170;48.794;9.182;2022-12-18T10:33:27;44.40;;;28.77;;
4313;SDS011;2170;48.794;9.182;2022-12-18T10:35:55;41.47;;;27.63;;
4313;SDS011;2170;48.794;9.182;2022-12-18T10:38:23;43.83;;;29.10;;
4313;SDS011;2170;48.794;9.182;2022-12-18T10:40:51;45.03;;;28.70;;
4313;SDS011;2170;48.794;9.182;2022-12-18T10:43:20;40.93;;;27.60;;
4313;SDS011;2170;48.794;9.182;2022-12-18T10:45:59;38.03;;;28.83;;
4313;SDS011;2170;48.794;9.182;2022-12-18T10:48:27;40.90;;;29.43;;
4313;SDS011;2170;48.794;9.182;2022-12-18T10:50:55;44.13;;;29.53;;
4313;SDS011;2170;48.794;9.182;2022-12-18T10:53:23;42.33;;;29.80;;
4313;SDS011;2170;48.794;9.182;2022-12-18T10:55:51;41.40;;;29.67;;
4313;SDS011;2170;48.794;9.182;2022-12-18T10:58:21;40.60;;;27.37;;
4313;SDS011;2170;48.794;9.182;2022-12-18T11:01:03;46.70;;;30.57;;
4313;SDS011;2170;48.794;9.182;2022-12-18T11:03:31;45.80;;;29.00;;
4313;SDS011;2170;48.794;9.182;2022-12-18T11:06:04;41.50;;;30.13;;
4313;SDS011;2170;48.794;9.182;2022-12-18T11:08:32;42.27;;;29.10;;
4313;SDS011;2170;48.794;9.182;2022-12-18T11:10:59;41.57;;;27.10;;
4313;SDS011;2170;48.794;9.182;2022-12-18T11:13:27;43.50;;;28.97;;
4313;SDS011;2170;48.794;9.182;2022-12-18T11:15:55;44.90;;;28.60;;
4313;SDS011;2170;48.794;9.182;2022-12-18T11:18:25;42.30;;;29.27;;
4313;SDS011;2170;48.794;9.182;2022-12-18T11:20:53;35.93;;;26.93;;
4313;SDS011;2170;48.794;9.182;2022-12-18T11:23:22;38.20;;;27.67;;
4313;SDS011;2170;48.794;9.182;2022-12-18T11:25:54;43.00;;;27.40;;
4313;SDS011;2170;48.794;9.182;2022-12-18T11:28:25;36.50;;;26.70;;
4313;SDS011;2170;48.794;9.182;2022-12-18T11:31:08;43.30;;;26.00;;
4313;SDS011;2170;48.794;9.182;2022-12-18T11:33:36;36.07;;;25.00;;
4313;SDS011;2170;48.794;9.182;2022-12-18T11:36:04;31.53;;;19.87;;
4313;SDS011;2170;48.794;9.182;2022-12-18T11:38:35;33.97;;;21.87;;
4313;SDS011;2170;48.794;9.182;2022-12-18T11:41:04;31.37;;;21.50;;
4313;SDS011;2170;48.794;9.182;2022-12-18T11:43:33;30.77;;;21.13;;
4313;SDS011;2170;48.794;9.182;2022-12-18T11:46:03;31.70;;;21.03;;
4313;SDS011;2170;48.794;9.182;2022-12-18T11:48:32;32.70;;;21.13;;
4313;SDS011;2170;48.794;9.182;2022-12-18T11:51:03;36.90;;;22.00;;
4313;SDS011;2170;48.794;9.182;2022-12-18T11:53:31;35.60;;;24.40;;
4313;SDS011;2170;48.794;9.182;2022-12-18T11:56:05;34.73;;;22.50;;
4313;SDS011;2170;48.794;9.182;2022-12-18T11:58:43;33.50;;;21.57;;
4313;SDS011;2170;48.794;9.182;2022-12-18T12:01:14;30.20;;;20.63;;
4313;SDS011;2170;48.794;9.182;2022-12-18T12:06:29;32.53;;;21.97;;
4313;SDS011;2170;48.794;9.182;2022-12-18T12:09:02;39.70;;;23.30;;
4313;SDS011;2170;48.794;9.182;2022-12-18T12:11:35;36.53;;;23.10;;
4313;SDS011;2170;48.794;9.182;2022-12-18T12:14:12;31.07;;;20.93;;
4313;SDS011;2170;48.794;9.182;2022-12-18T12:16:44;32.13;;;21.77;;
4313;SDS011;2170;48.794;9.182;2022-12-18T12:19:19;31.27;;;21.60;;
4313;SDS011;2170;48.794;9.182;2022-12-18T12:21:52;30.57;;;20.50;;
4313;SDS011;2170;48.794;9.182;2022-12-18T12:24:24;30.80;;;20.63;;
4313;SDS011;2170;48.794;9.182;2022-12-18T12:26:58;33.00;;;22.40;;
4313;SDS011;2170;48.794;9.182;2022-12-18T12:29:29;34.97;;;21.53;;
4313;SDS011;2170;48.794;9.182;2022-12-18T12:32:03;33.53;;;20.90;;
4313;SDS011;2170;48.794;9.182;2022-12-18T12:34:33;37.87;;;23.37;;
4313;SDS011;2170;48.794;9.182;2022-12-18T12:37:11;37.83;;;21.87;;
4313;SDS011;2170;48.794;9.182;2022-12-18T12:39:40;31.10;;;22.20;;
4313;SDS011;2170;48.794;9.182;2022-12-18T12:42:10;29.70;;;19.20;;
4313;SDS011;2170;48.794;9.182;2022-12-18T12:44:59;34.97;;;22.70;;
4313;SDS011;2170;48.794;9.182;2022-12-18T12:47:29;34.37;;;22.17;;
4313;SDS011;2170;48.794;9.182;2022-12-18T12:49:57;31.97;;;22.23;;
4313;SDS011;2170;48.794;9.182;2022-12-18T12:52:29;28.10;;;19.10;;
4313;SDS011;2170;48.794;9.182;2022-12-18T12:54:57;35.13;;;21.00;;
4313;SDS011;2170;48.794;9.182;2022-12-18T12:57:27;31.50;;;21.87;;
4313;SDS011;2170;48.794;9.182;2022-12-18T12:59:57;33.33;;;20.67;;
4313;SDS011;2170;48.794;9.182;2022-12-18T13:02:28;30.07;;;20.27;;
4313;SDS011;2170;48.794;9.182;2022-12-18T13:04:58;34.43;;;22.00;;
4313;SDS011;2170;48.794;9.182;2022-12-18T13:07:32;34.73;;;23.17;;
4313;SDS011;2170;48.794;9.182;2022-12-18T13:10:23;30.30;;;19.57;;
4313;SDS011;2170;48.794;9.182;2022-12-18T13:12:51;30.60;;;20.07;;
4313;SDS011;2170;48.794;9.182;2022-12-18T13:15:25;35.30;;;22.77;;
4313;SDS011;2170;48.794;9.182;2022-12-18T13:20:48;34.37;;;21.93;;
4313;SDS011;2170;48.794;9.182;2022-12-18T13:23:23;30.87;;;20.70;;
4313;SDS011;2170;48.794;9.182;2022-12-18T13:25:52;35.93;;;24.23;;
4313;SDS011;2170;48.794;9.182;2022-12-18T13:28:20;38.23;;;25.00;;
4313;SDS011;2170;48.794;9.182;2022-12-18T13:30:50;32.93;;;21.30;;
4313;SDS011;2170;48.794;9.182;2022-12-18T13:33:36;34.63;;;22.37;;
4313;SDS011;2170;48.794;9.182;2022-12-18T13:36:09;32.80;;;21.13;;
4313;SDS011;2170;48.794;9.182;2022-12-18T13:38:38;36.67;;;22.80;;
4313;SDS011;2170;48.794;9.182;2022-12-18T13:41:15;34.83;;;21.47;;
4313;SDS011;2170;48.794;9.182;2022-12-18T13:43:48;35.83;;;22.27;;
4313;SDS011;2170;48.794;9.182;2022-12-18T13:46:23;33.00;;;21.87;;
4313;SDS011;2170;48.794;9.182;2022-12-18T13:48:52;33.77;;;22.20;;
4313;SDS011;2170;48.794;9.182;2022-12-18T13:51:20;34.90;;;22.53;;
4313;SDS011;2170;48.794;9.182;2022-12-18T13:53:50;37.97;;;24.07;;
4313;SDS011;2170;48.794;9.182;2022-12-18T13:56:18;37.60;;;23.17;;
4313;SDS011;2170;48.794;9.182;2022-12-18T13:59:02;35.50;;;23.17;;
4313;SDS011;2170;48.794;9.182;2022-12-18T14:01:30;36.20;;;23.27;;
4313;SDS011;2170;48.794;9.182;2022-12-18T14:04:08;34.87;;;23.70;;
4313;SDS011;2170;48.794;9.182;2022-12-18T14:06:35;37.70;;;23.67;;
4313;SDS011;2170;48.794;9.182;2022-12-18T14:09:03;39.87;;;25.17;;
4313;SDS011;2170;48.794;9.182;2022-12-18T14:11:31;37.13;;;24.87;;
4313;SDS011;2170;48.794;9.182;2022-12-18T14:13:58;39.37;;;24.20;;
4313;SDS011;2170;48.794;9.182;2022-12-18T14:16:25;35.60;;;23.00;;
4313;SDS011;2170;48.794;9.182;2022-12-18T14:18:54;38.20;;;24.67;;
4313;SDS011;2170;48.794;9.182;2022-12-18T14:21:23;39.27;;;24.13;;
4313;SDS011;2170;48.794;9.182;2022-12-18T14:24:03;40.10;;;25.57;;
4313;SDS011;2170;48.794;9.182;2022-12-18T14:26:31;40.80;;;25.50;;
4313;SDS011;2170;48.794;9.182;2022-12-18T14:28:59;42.07;;;25.23;;
4313;SDS011;2170;48.794;9.182;2022-12-18T14:31:27;39.30;;;26.10;;
4313;SDS011;2170;48.794;9.182;2022-12-18T14:33:55;38.83;;;25.60;;
4313;SDS011;2170;48.794;9.182;2022-12-18T14:36:23;40.70;;;27.60;;
4313;SDS011;2170;48.794;9.182;2022-12-18T14:38:51;40.33;;;26.97;;
4313;SDS011;2170;48.794;9.182;2022-12-18T14:41:20;38.67;;;24.83;;
4313;SDS011;2170;48.794;9.182;2022-12-18T14:43:48;47.33;;;27.83;;
4313;SDS011;2170;48.794;9.182;2022-12-18T14:46:26;36.00;;;25.77;;
4313;SDS011;2170;48.794;9.182;2022-12-18T14:48:54;39.03;;;26.77;;
4313;SDS011;2170;48.794;9.182;2022-12-18T14:51:21;42.60;;;28.63;;
4313;SDS011;2170;48.794;9.182;2022-12-18T14:53:52;44.90;;;28.50;;
4313;SDS011;2170;48.794;9.182;2022-12-18T14:56:21;45.10;;;28.87;;
4313;SDS011;2170;48.794;9.182;2022-12-18T14:58:50;41.93;;;27.73;;
4313;SDS011;2170;48.794;9.182;2022-12-18T15:01:22;46.13;;;27.47;;
4313;SDS011;2170;48.794;9.182;2022-12-18T15:03:50;47.50;;;30.37;;
4313;SDS011;2170;48.794;9.182;2022-12-18T15:06:18;41.00;;;27.30;;